createdAt,value
2023-03-01T00:01:08.078Z,5.43
2023-03-01T00:03:41.520Z,5.44
2023-03-01T00:06:15.374Z,5.37
2023-03-01T00:08:49.219Z,5.10
2023-03-01T00:11:24.850Z,5.29
2023-03-01T00:14:01.903Z,5.26
2023-03-01T00:16:39.776Z,5.17
2023-03-01T00:19:15.615Z,5.36
2023-03-01T00:21:49.995Z,5.34
2023-03-01T00:24:23.619Z,5.21
2023-03-01T00:26:57.845Z,5.37
2023-03-01T00:29:31.166Z,5.41
2023-03-01T00:32:06.015Z,5.38
2023-03-01T00:34:39.334Z,5.32
2023-03-01T00:37:12.616Z,5.47
2023-03-01T00:39:46.249Z,5.43
2023-03-01T00:42:19.601Z,5.50
2023-03-01T00:44:52.814Z,5.53
2023-03-01T00:47:27.409Z,5.31
2023-03-01T00:50:01.091Z,5.35
2023-03-01T00:52:34.316Z,5.35
2023-03-01T00:55:09.138Z,5.37
2023-03-01T00:57:42.599Z,5.36
2023-03-01T01:00:16.389Z,5.21
2023-03-01T01:02:50.858Z,5.19
2023-03-01T01:05:24.365Z,5.13
2023-03-01T01:07:57.488Z,5.18
2023-03-01T01:10:31.084Z,5.16
2023-03-01T01:13:06.362Z,5.22
2023-03-01T01:15:41.085Z,5.15
2023-03-01T01:18:15.685Z,5.30
2023-03-01T01:20:48.888Z,5.21
2023-03-01T01:23:22.618Z,5.20
2023-03-01T01:25:56.067Z,5.21
2023-03-01T01:28:29.714Z,5.18
2023-03-01T01:31:03.283Z,5.21
2023-03-01T01:33:39.151Z,5.05
2023-03-01T01:36:13.153Z,5.08
2023-03-01T01:38:47.064Z,5.33
2023-03-01T01:41:22.297Z,5.22
2023-03-01T01:44:12.899Z,5.21
2023-03-01T01:46:50.401Z,5.23
2023-03-01T01:49:33.660Z,5.25
2023-03-01T01:52:11.840Z,5.15
2023-03-01T01:54:51.245Z,5.28
2023-03-01T01:57:29.624Z,5.29
2023-03-01T02:00:07.529Z,5.27
2023-03-01T02:02:43.969Z,5.46
2023-03-01T02:05:28.444Z,5.35
2023-03-01T02:08:02.262Z,5.36
2023-03-01T02:10:37.454Z,5.17
2023-03-01T02:13:11.747Z,5.13
2023-03-01T02:15:45.799Z,5.15
2023-03-01T02:18:21.188Z,5.24
2023-03-01T02:21:07.595Z,5.10
2023-03-01T02:23:41.546Z,5.16
2023-03-01T02:26:22.903Z,5.02
2023-03-01T02:28:58.009Z,5.09
2023-03-01T02:31:46.323Z,5.10
2023-03-01T02:34:22.107Z,5.16
2023-03-01T02:36:59.017Z,5.10
2023-03-01T02:39:36.612Z,5.08
2023-03-01T02:42:14.145Z,5.22
2023-03-01T02:44:48.729Z,5.15
2023-03-01T02:47:22.166Z,5.27
2023-03-01T02:49:56.106Z,5.19
2023-03-01T02:52:43.832Z,5.16
2023-03-01T02:55:19.214Z,5.07
2023-03-01T02:57:52.769Z,5.13
2023-03-01T03:00:30.656Z,5.10
2023-03-01T03:03:03.948Z,5.21
2023-03-01T03:05:37.256Z,5.26
2023-03-01T03:08:12.338Z,5.15
2023-03-01T03:10:45.578Z,5.11
2023-03-01T03:13:20.259Z,5.13
2023-03-01T03:15:56.317Z,5.24
2023-03-01T03:18:29.999Z,5.17
2023-03-01T03:21:03.156Z,5.12
2023-03-01T03:23:36.622Z,5.03
2023-03-01T03:26:09.969Z,5.13
2023-03-01T03:28:43.488Z,5.27
2023-03-01T03:31:18.559Z,5.15
2023-03-01T03:33:52.016Z,5.19
2023-03-01T03:36:26.777Z,5.13
2023-03-01T03:39:00.971Z,5.27
2023-03-01T03:41:37.019Z,5.24
2023-03-01T03:44:10.497Z,5.16
2023-03-01T03:46:45.449Z,5.19
2023-03-01T03:49:19.086Z,5.34
2023-03-01T03:51:52.362Z,5.16
2023-03-01T03:54:25.599Z,5.03
2023-03-01T03:56:58.818Z,5.10
2023-03-01T03:59:42.260Z,5.09
2023-03-01T04:02:23.287Z,5.15
2023-03-01T04:04:56.693Z,5.15
2023-03-01T04:07:29.879Z,5.09
2023-03-01T04:10:03.739Z,5.13
2023-03-01T04:12:39.848Z,5.13
2023-03-01T04:15:17.120Z,5.14
2023-03-01T04:17:53.820Z,5.18
2023-03-01T04:20:29.978Z,5.10
2023-03-01T04:23:11.608Z,5.01
2023-03-01T04:25:50.525Z,5.04
2023-03-01T04:28:26.145Z,4.96
2023-03-01T04:31:01.516Z,4.82
2023-03-01T04:33:36.424Z,5.08
2023-03-01T04:36:11.471Z,5.09
2023-03-01T04:38:48.477Z,4.97
2023-03-01T04:41:23.905Z,5.05
2023-03-01T04:43:57.240Z,5.13
2023-03-01T04:46:31.021Z,5.05
2023-03-01T04:49:06.243Z,5.13
2023-03-01T04:51:39.547Z,5.05
2023-03-01T04:54:12.801Z,5.22
2023-03-01T04:56:46.135Z,5.15
2023-03-01T04:59:23.531Z,5.05
2023-03-01T05:01:58.400Z,5.03
2023-03-01T05:04:33.418Z,5.12
2023-03-01T05:07:06.917Z,4.96
2023-03-01T05:09:40.200Z,4.90
2023-03-01T05:12:14.233Z,5.06
2023-03-01T05:14:48.040Z,5.06
2023-03-01T05:17:21.712Z,5.06
2023-03-01T05:19:57.132Z,5.10
2023-03-01T05:22:30.614Z,5.16
2023-03-01T05:25:03.963Z,5.04
2023-03-01T05:27:37.630Z,5.06
2023-03-01T05:30:15.357Z,5.01
2023-03-01T05:32:51.097Z,5.08
2023-03-01T05:35:27.072Z,4.73
2023-03-01T05:38:00.619Z,5.18
2023-03-01T05:40:36.321Z,5.04
2023-03-01T05:43:09.947Z,5.08
2023-03-01T05:45:44.158Z,4.93
2023-03-01T05:48:17.479Z,5.12
2023-03-01T05:50:52.139Z,5.17
2023-03-01T05:53:25.542Z,4.95
2023-03-01T05:55:59.245Z,5.06
2023-03-01T05:58:32.559Z,5.00
2023-03-01T06:01:06.536Z,5.13
2023-03-01T06:03:40.018Z,5.03
2023-03-01T06:06:14.878Z,4.94
2023-03-01T06:08:48.177Z,4.91
2023-03-01T06:11:22.267Z,4.94
2023-03-01T06:13:55.937Z,4.95
2023-03-01T06:16:29.996Z,5.12
2023-03-01T06:19:03.656Z,4.91
2023-03-01T06:21:38.263Z,4.95
2023-03-01T06:24:11.884Z,5.05
2023-03-01T06:26:45.261Z,5.06
2023-03-01T06:29:18.752Z,4.97
2023-03-01T06:31:52.572Z,5.12
2023-03-01T06:34:25.998Z,5.03
2023-03-01T06:37:00.729Z,5.09
2023-03-01T06:39:34.384Z,5.11
2023-03-01T06:42:07.682Z,5.24
2023-03-01T06:44:41.183Z,5.06
2023-03-01T06:47:14.974Z,5.20
2023-03-01T06:49:48.432Z,5.23
2023-03-01T06:52:23.146Z,5.20
2023-03-01T06:54:56.625Z,5.22
2023-03-01T06:57:29.927Z,5.09
2023-03-01T07:00:03.524Z,5.16
2023-03-01T07:02:37.010Z,5.17
2023-03-01T07:05:10.798Z,5.06
2023-03-01T07:07:45.762Z,5.17
2023-03-01T07:10:19.370Z,5.15
2023-03-01T07:12:57.011Z,5.06
2023-03-01T07:15:31.122Z,4.68
2023-03-01T07:18:05.268Z,5.09
2023-03-01T07:20:38.730Z,5.12
2023-03-01T07:23:13.261Z,5.17
2023-03-01T07:25:46.515Z,5.19
2023-03-01T07:28:19.980Z,5.22
2023-03-01T07:30:53.427Z,4.97
2023-03-01T07:33:27.496Z,5.20
2023-03-01T07:36:01.983Z,5.25
2023-03-01T07:38:36.764Z,5.15
2023-03-01T07:41:10.563Z,5.14
2023-03-01T07:43:43.749Z,5.25
2023-03-01T07:46:18.798Z,5.12
2023-03-01T07:48:52.368Z,5.27
2023-03-01T07:51:26.170Z,5.23
2023-03-01T07:54:01.149Z,5.17
2023-03-01T07:56:34.618Z,5.28
2023-03-01T07:59:07.962Z,5.21
2023-03-01T08:01:41.233Z,5.21
2023-03-01T08:04:14.740Z,5.19
2023-03-01T08:06:48.271Z,5.19
2023-03-01T08:09:24.339Z,5.11
2023-03-01T08:12:00.843Z,5.14
2023-03-01T08:14:35.283Z,5.15
2023-03-01T08:17:09.061Z,5.24
2023-03-01T08:19:43.133Z,5.25
2023-03-01T08:22:17.019Z,5.21
2023-03-01T08:24:51.778Z,5.20
2023-03-01T08:27:25.621Z,5.17
2023-03-01T08:29:59.065Z,5.25
2023-03-01T08:32:32.362Z,5.22
2023-03-01T08:35:06.330Z,5.31
2023-03-01T08:37:40.147Z,5.29
2023-03-01T08:40:15.763Z,5.12
2023-03-01T08:42:48.963Z,5.10
2023-03-01T08:45:22.430Z,5.15
2023-03-01T08:47:55.823Z,5.20
2023-03-01T08:50:29.350Z,5.29
2023-03-01T08:53:02.745Z,5.21
2023-03-01T08:55:37.953Z,5.27
2023-03-01T08:58:11.573Z,5.25
2023-03-01T09:00:45.667Z,5.15
2023-03-01T09:03:19.042Z,5.11
2023-03-01T09:05:52.413Z,5.13
2023-03-01T09:08:26.140Z,5.21
2023-03-01T09:11:03.603Z,5.14
2023-03-01T09:13:38.266Z,5.09
2023-03-01T09:16:12.961Z,5.15
2023-03-01T09:18:46.284Z,5.19
2023-03-01T09:21:30.619Z,5.19
2023-03-01T09:24:16.637Z,5.23
2023-03-01T09:26:51.872Z,5.19
2023-03-01T09:29:26.887Z,5.17
2023-03-01T09:32:00.596Z,5.33
2023-03-01T09:34:53.935Z,5.27
2023-03-01T09:37:29.236Z,5.25
2023-03-01T09:40:04.357Z,5.20
2023-03-01T09:42:50.033Z,5.09
2023-03-01T09:45:31.022Z,5.04
2023-03-01T09:48:06.243Z,5.13
2023-03-01T09:50:43.578Z,5.04
2023-03-01T09:53:18.923Z,5.11
2023-03-01T09:55:58.091Z,4.98
2023-03-01T09:58:46.116Z,5.08
2023-03-01T10:01:33.788Z,5.12
2023-03-01T10:04:37.631Z,5.25
2023-03-01T10:07:29.753Z,5.11
2023-03-01T10:10:05.679Z,5.19
2023-03-01T10:12:45.737Z,5.36
2023-03-01T10:15:27.980Z,5.16
2023-03-01T10:18:08.490Z,5.29
2023-03-01T10:20:48.571Z,5.16
2023-03-01T10:23:22.554Z,5.10
2023-03-01T10:26:14.404Z,5.00
2023-03-01T10:28:56.421Z,5.12
2023-03-01T10:31:44.028Z,5.19
2023-03-01T10:34:19.258Z,5.35
2023-03-01T10:36:57.732Z,5.40
2023-03-01T10:39:31.543Z,5.29
2023-03-01T10:42:07.568Z,5.14
2023-03-01T10:44:45.398Z,5.16
2023-03-01T10:47:22.676Z,5.28
2023-03-01T10:49:58.871Z,5.11
2023-03-01T10:52:35.875Z,5.09
2023-03-01T10:55:28.902Z,5.20
2023-03-01T10:58:11.596Z,5.14
2023-03-01T11:00:50.704Z,5.16
2023-03-01T11:03:28.594Z,5.23
2023-03-01T11:06:06.555Z,5.12
2023-03-01T11:08:43.399Z,5.31
2023-03-01T11:11:26.322Z,5.42
2023-03-01T11:14:06.587Z,5.32
2023-03-01T11:16:45.815Z,5.23
2023-03-01T11:19:23.187Z,5.40
2023-03-01T11:22:02.263Z,5.23
2023-03-01T11:24:45.260Z,5.33
2023-03-01T11:27:21.852Z,5.36
2023-03-01T11:29:58.073Z,5.40
2023-03-01T11:32:40.914Z,5.39
2023-03-01T11:35:22.798Z,5.39
2023-03-01T11:38:11.807Z,5.44
2023-03-01T11:40:54.350Z,5.49
2023-03-01T11:43:39.607Z,5.49
2023-03-01T11:46:51.733Z,5.43
2023-03-01T11:49:50.950Z,5.36
2023-03-01T11:52:35.481Z,5.39
2023-03-01T11:55:25.843Z,5.48
2023-03-01T11:58:16.546Z,5.40
2023-03-01T12:01:05.819Z,5.43
2023-03-01T12:04:18.323Z,5.46
2023-03-01T12:06:58.004Z,5.44
2023-03-01T12:09:49.296Z,5.41
2023-03-01T12:12:38.726Z,5.46
2023-03-01T12:15:49.739Z,5.46
2023-03-01T12:18:49.483Z,5.42
2023-03-01T12:21:37.407Z,5.47
2023-03-01T12:24:40.938Z,5.36
2023-03-01T12:27:36.878Z,5.47
2023-03-01T12:30:23.955Z,5.39
2023-03-01T12:33:16.057Z,5.49
2023-03-01T12:36:07.542Z,5.49
2023-03-01T12:38:44.813Z,5.53
2023-03-01T12:41:45.826Z,5.47
2023-03-01T12:44:43.170Z,5.49
2023-03-01T12:47:29.088Z,5.45
2023-03-01T12:50:06.994Z,5.43
2023-03-01T12:52:46.105Z,5.45
2023-03-01T12:55:30.453Z,5.39
2023-03-01T12:58:14.365Z,5.41
2023-03-01T13:00:54.438Z,5.48
2023-03-01T13:03:36.516Z,5.49
2023-03-01T13:06:17.223Z,5.36
2023-03-01T13:08:57.104Z,5.38
2023-03-01T13:11:31.041Z,5.45
2023-03-01T13:14:19.308Z,5.43
2023-03-01T13:16:55.549Z,5.51
2023-03-01T13:19:31.167Z,5.58
2023-03-01T13:22:30.893Z,5.52
2023-03-01T13:25:15.459Z,5.47
2023-03-01T13:27:49.232Z,5.54
2023-03-01T13:30:41.825Z,5.47
2023-03-01T13:33:41.813Z,5.48
2023-03-01T13:36:47.400Z,5.56
2023-03-01T13:39:34.232Z,5.52
2023-03-01T13:42:42.050Z,5.44
2023-03-01T13:45:22.904Z,5.44
2023-03-01T13:48:00.373Z,5.55
2023-03-01T13:50:45.378Z,5.61
2023-03-01T13:53:21.016Z,5.58
2023-03-01T13:55:59.786Z,5.24
2023-03-01T13:58:45.663Z,5.45
2023-03-01T14:01:28.634Z,5.47
2023-03-01T14:04:02.857Z,5.48
2023-03-01T14:06:37.789Z,5.53
2023-03-01T14:09:19.583Z,5.51
2023-03-01T14:12:19.331Z,5.53
2023-03-01T14:15:00.317Z,5.48
2023-03-01T14:17:46.895Z,5.40
2023-03-01T14:20:23.221Z,5.20
2023-03-01T14:23:00.900Z,5.29
2023-03-01T14:25:37.770Z,5.34
2023-03-01T14:28:19.552Z,5.36
2023-03-01T14:30:54.628Z,5.40
2023-03-01T14:33:30.485Z,5.38
2023-03-01T14:36:06.740Z,5.34
2023-03-01T14:38:45.055Z,5.35
2023-03-01T14:41:20.996Z,5.40
2023-03-01T14:44:00.574Z,5.55
2023-03-01T14:46:37.466Z,5.60
2023-03-01T14:49:16.442Z,5.48
2023-03-01T14:51:55.856Z,5.54
2023-03-01T14:54:39.973Z,5.44
2023-03-01T14:57:16.651Z,5.37
2023-03-01T14:59:53.939Z,5.32
2023-03-01T15:02:29.274Z,5.26
2023-03-01T15:05:08.639Z,5.26
2023-03-01T15:07:49.896Z,5.27
2023-03-01T15:10:28.574Z,5.09
2023-03-01T15:13:13.825Z,5.40
2023-03-01T15:15:49.374Z,5.24
2023-03-01T15:18:27.731Z,4.91
2023-03-01T15:21:09.677Z,5.29
2023-03-01T15:23:43.449Z,5.31
2023-03-01T15:26:26.412Z,5.28
2023-03-01T15:29:02.183Z,5.16
2023-03-01T15:31:39.695Z,5.21
2023-03-01T15:34:25.124Z,5.30
2023-03-01T15:37:01.554Z,5.22
2023-03-01T15:39:39.336Z,5.38
2023-03-01T15:42:17.736Z,5.33
2023-03-01T15:44:51.957Z,5.28
2023-03-01T15:47:28.813Z,5.31
2023-03-01T15:50:03.420Z,5.22
2023-03-01T15:52:42.612Z,5.27
2023-03-01T15:55:21.211Z,5.27
2023-03-01T15:58:02.686Z,5.31
2023-03-01T16:00:35.892Z,5.30
2023-03-01T16:03:12.758Z,5.19
2023-03-01T16:05:46.189Z,5.12
2023-03-01T16:08:20.951Z,5.22
2023-03-01T16:10:55.632Z,5.10
2023-03-01T16:13:31.944Z,5.09
2023-03-01T16:16:06.428Z,5.16
2023-03-01T16:18:39.993Z,5.14
2023-03-01T16:21:17.669Z,5.02
2023-03-01T16:23:52.107Z,4.97
2023-03-01T16:26:25.245Z,5.04
2023-03-01T16:29:00.709Z,4.93
2023-03-01T16:31:34.527Z,5.04
2023-03-01T16:34:08.272Z,5.03
2023-03-01T16:36:42.108Z,5.09
2023-03-01T16:39:15.671Z,5.09
2023-03-01T16:41:48.894Z,5.01
2023-03-01T16:44:25.877Z,4.94
2023-03-01T16:46:59.471Z,5.06
2023-03-01T16:49:33.092Z,5.18
2023-03-01T16:52:06.551Z,5.17
2023-03-01T16:54:40.067Z,5.04
2023-03-01T16:57:13.601Z,5.03
2023-03-01T16:59:48.379Z,5.02
2023-03-01T17:02:22.014Z,5.02
2023-03-01T17:04:55.934Z,4.92
2023-03-01T17:07:29.512Z,4.91
2023-03-01T17:10:03.026Z,4.95
2023-03-01T17:12:39.052Z,5.05
2023-03-01T17:15:14.284Z,4.92
2023-03-01T17:17:51.884Z,5.00
2023-03-01T17:20:25.527Z,5.05
2023-03-01T17:22:59.812Z,4.93
2023-03-01T17:25:33.784Z,4.77
2023-03-01T17:28:07.112Z,4.82
2023-03-01T17:30:47.780Z,4.84
2023-03-01T17:33:21.872Z,4.75
2023-03-01T17:35:55.270Z,4.75
2023-03-01T17:38:29.456Z,4.58
2023-03-01T17:41:02.670Z,4.86
2023-03-01T17:43:36.132Z,4.81
2023-03-01T17:46:11.439Z,4.81
2023-03-01T17:48:45.694Z,4.84
2023-03-01T17:51:19.380Z,4.87
2023-03-01T17:53:52.951Z,4.85
2023-03-01T17:56:26.991Z,4.90
2023-03-01T17:59:00.742Z,4.80
2023-03-01T18:01:36.898Z,4.88
2023-03-01T18:04:10.494Z,4.77
2023-03-01T18:06:44.381Z,4.78
2023-03-01T18:09:17.874Z,4.76
2023-03-01T18:11:53.969Z,4.84
2023-03-01T18:14:29.852Z,4.75
2023-03-01T18:17:06.724Z,4.66
2023-03-01T18:19:41.316Z,4.74
2023-03-01T18:22:14.786Z,3.48
2023-03-01T18:24:48.009Z,4.70
2023-03-01T18:27:21.183Z,4.64
2023-03-01T18:29:54.922Z,4.62
2023-03-01T18:32:29.704Z,4.57
2023-03-01T18:35:03.026Z,4.65
2023-03-01T18:37:36.697Z,4.62
2023-03-01T18:40:12.734Z,4.65
2023-03-01T18:42:46.307Z,4.50
2023-03-01T18:45:19.457Z,4.63
2023-03-01T18:47:54.583Z,4.62
2023-03-01T18:50:29.521Z,4.48
2023-03-01T18:53:02.823Z,4.58
2023-03-01T18:55:37.725Z,4.65
2023-03-01T18:58:11.992Z,4.66
2023-03-01T19:00:45.605Z,4.57
2023-03-01T19:03:20.705Z,4.50
2023-03-01T19:05:54.341Z,4.60
2023-03-01T19:08:28.030Z,4.64
2023-03-01T19:11:04.652Z,4.59
2023-03-01T19:13:40.258Z,4.53
2023-03-01T19:16:16.655Z,4.48
2023-03-01T19:18:52.158Z,4.14
2023-03-01T19:21:25.961Z,4.48
2023-03-01T19:24:00.156Z,4.58
2023-03-01T19:26:34.117Z,4.69
2023-03-01T19:29:07.764Z,4.63
2023-03-01T19:31:41.417Z,4.68
2023-03-01T19:34:16.923Z,4.63
2023-03-01T19:36:50.533Z,4.68
2023-03-01T19:39:24.464Z,4.60
2023-03-01T19:42:00.914Z,4.64
2023-03-01T19:44:34.799Z,4.16
2023-03-01T19:47:08.427Z,4.64
2023-03-01T19:49:43.267Z,4.61
2023-03-01T19:52:17.036Z,4.61
2023-03-01T19:54:51.928Z,4.67
2023-03-01T19:57:27.165Z,4.58
2023-03-01T20:00:01.621Z,4.59
2023-03-01T20:02:35.272Z,4.61
2023-03-01T20:05:12.073Z,4.59
2023-03-01T20:07:45.987Z,4.55
2023-03-01T20:10:19.999Z,4.48
2023-03-01T20:12:54.327Z,4.59
2023-03-01T20:15:27.783Z,4.57
2023-03-01T20:18:01.433Z,4.52
2023-03-01T20:20:36.359Z,4.43
2023-03-01T20:23:10.059Z,4.60
2023-03-01T20:25:43.654Z,4.44
2023-03-01T20:28:17.464Z,4.55
2023-03-01T20:30:51.523Z,4.55
2023-03-01T20:33:25.505Z,4.36
2023-03-01T20:36:00.895Z,4.46
2023-03-01T20:38:35.115Z,4.45
2023-03-01T20:41:10.497Z,4.48
2023-03-01T20:43:44.134Z,4.58
2023-03-01T20:46:17.447Z,4.61
2023-03-01T20:48:51.790Z,4.63
2023-03-01T20:51:27.006Z,4.51
2023-03-01T20:54:00.652Z,4.45
2023-03-01T20:56:34.453Z,4.65
2023-03-01T20:59:09.743Z,4.74
2023-03-01T21:01:43.149Z,4.64
2023-03-01T21:04:17.941Z,4.44
2023-03-01T21:06:53.111Z,4.39
2023-03-01T21:09:26.539Z,4.49
2023-03-01T21:12:02.354Z,4.45
2023-03-01T21:14:42.545Z,4.35
2023-03-01T21:17:17.624Z,4.25
2023-03-01T21:19:51.031Z,4.26
2023-03-01T21:22:25.794Z,4.45
2023-03-01T21:24:59.136Z,4.47
2023-03-01T21:27:36.829Z,4.39
2023-03-01T21:30:11.313Z,4.33
2023-03-01T21:32:45.129Z,4.23
2023-03-01T21:35:18.914Z,4.34
2023-03-01T21:37:53.987Z,4.44
2023-03-01T21:40:27.497Z,4.40
2023-03-01T21:43:00.825Z,4.39
2023-03-01T21:45:36.150Z,4.40
2023-03-01T21:48:09.960Z,4.56
2023-03-01T21:50:43.827Z,4.34
2023-03-01T21:53:18.332Z,4.29
2023-03-01T21:55:52.278Z,4.27
2023-03-01T21:58:27.968Z,4.26
2023-03-01T22:01:10.023Z,4.23
2023-03-01T22:03:46.210Z,4.26
2023-03-01T22:06:22.815Z,4.23
2023-03-01T22:09:00.378Z,4.25
2023-03-01T22:11:35.605Z,4.17
2023-03-01T22:14:13.600Z,3.83
2023-03-01T22:16:51.600Z,4.19
2023-03-01T22:19:26.948Z,4.06
2023-03-01T22:22:00.099Z,4.05
2023-03-01T22:24:35.147Z,4.13
2023-03-01T22:27:08.603Z,4.30
2023-03-01T22:29:41.767Z,4.22
2023-03-01T22:32:15.046Z,4.24
2023-03-01T22:34:48.408Z,4.21
2023-03-01T22:37:21.872Z,4.25
2023-03-01T22:39:57.349Z,4.12
2023-03-01T22:42:31.084Z,4.15
2023-03-01T22:45:04.990Z,4.23
2023-03-01T22:47:38.753Z,4.18
2023-03-01T22:50:15.217Z,4.13
2023-03-01T22:52:48.420Z,4.24
2023-03-01T22:55:23.668Z,4.05
2023-03-01T22:57:57.357Z,4.07
2023-03-01T23:00:30.780Z,4.15
2023-03-01T23:03:04.003Z,3.82
2023-03-01T23:05:37.279Z,3.88
2023-03-01T23:08:10.425Z,4.07
2023-03-01T23:10:45.211Z,4.15
2023-03-01T23:13:19.336Z,3.94
2023-03-01T23:15:54.257Z,4.09
2023-03-01T23:18:27.594Z,3.98
2023-03-01T23:21:01.085Z,3.99
2023-03-01T23:23:34.223Z,4.08
2023-03-01T23:26:09.443Z,3.88
2023-03-01T23:28:43.743Z,2.68
2023-03-01T23:31:17.610Z,3.89
2023-03-01T23:33:50.683Z,4.06
2023-03-01T23:36:26.289Z,4.07
2023-03-01T23:39:01.443Z,3.43
2023-03-01T23:41:36.396Z,4.08
2023-03-01T23:44:09.714Z,4.15
2023-03-01T23:46:43.155Z,4.16
2023-03-01T23:49:18.061Z,4.08
2023-03-01T23:51:51.466Z,4.18
2023-03-01T23:54:26.721Z,4.14
2023-03-01T23:57:01.975Z,4.07
2023-03-01T23:59:35.641Z,4.12
